Time;durP1;ratioP1;P1;durP2;ratioP2;P2;SDS_P1;SDS_P2;PMS_P1;PMS_P2;Temp;Humidity;BMP_temperature;BMP_pressure;BME280_temperature;BME280_humidity;BME280_pressure;Samples;Min_cycle;Max_cycle;Signal;HPM_P1;HPM_P2
2022/09/08 00:00:38;;;;;;;1.40;0.40;;;;;;;-142.37;100.00;59669.53;4973809;28;20031;-62
2022/09/08 00:03:08;;;;;;;1.05;0.30;;;;;;;-142.37;100.00;59669.53;4956025;28;20038;-63
2022/09/08 00:05:40;;;;;;;2.35;0.32;;;;;;;-142.37;100.00;59669.53;4973316;28;20050;-63
2022/09/08 00:08:05;;;;;;;1.75;0.28;;;;;;;-142.37;100.00;59669.53;4956244;28;20093;-62
2022/09/08 00:10:31;;;;;;;1.52;0.50;;;;;;;-142.37;100.00;59669.53;4956248;28;20035;-63
2022/09/08 00:12:59;;;;;;;4.00;0.40;;;;;;;-142.37;100.00;59669.53;4956121;28;20031;-65
2022/09/08 00:15:25;;;;;;;1.13;0.43;;;;;;;-142.37;100.00;59669.53;4973475;28;20085;-63
2022/09/08 00:17:50;;;;;;;0.90;0.50;;;;;;;-142.37;100.00;59669.53;4973513;28;20030;-63
2022/09/08 00:20:16;;;;;;;3.20;0.47;;;;;;;-142.37;100.00;59669.53;4973286;28;20171;-61
2022/09/08 00:22:42;;;;;;;0.20;0.20;;;;;;;-142.37;100.00;59669.53;4973819;28;20042;-62
2022/09/08 00:25:08;;;;;;;0.98;0.30;;;;;;;-142.37;100.00;59669.53;4973572;28;20037;-63
2022/09/08 00:27:34;;;;;;;0.70;0.40;;;;;;;-142.37;100.00;59669.53;4956038;28;20038;-62
2022/09/08 00:29:59;;;;;;;0.60;0.30;;;;;;;-142.37;100.00;59669.53;4973512;28;20043;-63
2022/09/08 00:32:25;;;;;;;0.98;0.10;;;;;;;-142.37;100.00;59669.53;4973192;28;20072;-64
2022/09/08 00:34:53;;;;;;;0.47;0.30;;;;;;;-142.37;100.00;59669.53;4955884;28;20112;-62
2022/09/08 00:37:19;;;;;;;2.20;0.50;;;;;;;-142.37;100.00;59669.53;4973192;28;20059;-61
2022/09/08 00:39:44;;;;;;;1.35;0.25;;;;;;;-142.37;100.00;59669.53;4973386;28;20038;-63
2022/09/08 00:42:10;;;;;;;0.22;0.20;;;;;;;-142.37;100.00;59669.53;4973465;28;20035;-63
2022/09/08 00:44:49;;;;;;;0.20;0.17;;;;;;;-142.37;100.00;59669.53;4973487;28;20039;-63
2022/09/08 00:47:21;;;;;;;1.63;0.20;;;;;;;-142.37;100.00;59669.53;4972850;28;20451;-62
2022/09/08 00:49:52;;;;;;;0.30;0.20;;;;;;;-142.37;100.00;59669.53;4973330;28;20023;-62
2022/09/08 00:52:20;;;;;;;1.92;0.50;;;;;;;-142.37;100.00;59669.53;4973409;28;20042;-63
2022/09/08 00:54:47;;;;;;;1.67;0.40;;;;;;;-142.37;100.00;59669.53;4955976;28;20031;-62
2022/09/08 00:57:12;;;;;;;1.75;0.30;;;;;;;-142.37;100.00;59669.53;4973132;28;20483;-63
2022/09/08 00:59:38;;;;;;;0.82;0.30;;;;;;;-142.37;100.00;59669.53;4973159;28;20023;-63
2022/09/08 01:02:19;;;;;;;1.33;0.50;;;;;;;-142.37;100.00;59669.53;4973455;28;20027;-63
2022/09/08 01:04:44;;;;;;;1.15;0.38;;;;;;;-142.37;100.00;59669.53;4973353;28;20479;-64
2022/09/08 01:13:12;;;;;;;4.18;0.45;;;;;;;-142.37;100.00;59669.53;4976642;28;20112;-64
2022/09/08 01:15:38;;;;;;;2.40;0.20;;;;;;;-142.37;100.00;59669.53;4976598;28;20129;-62
2022/09/08 01:18:03;;;;;;;1.40;0.40;;;;;;;-142.37;100.00;59669.53;4976175;28;20399;-62
2022/09/08 01:20:59;;;;;;;1.67;0.30;;;;;;;-142.37;100.00;59669.53;4976442;28;20035;-63
2022/09/08 01:23:34;;;;;;;;;;;;;;;-142.37;100.00;59669.53;4975447;28;20037;-63
2022/09/08 01:26:08;;;;;;;0.82;0.22;;;;;;;-142.37;100.00;59669.53;4976454;28;19917;-63
2022/09/08 01:28:46;;;;;;;1.02;0.50;;;;;;;-142.37;100.00;59669.53;4974758;28;20035;-62
2022/09/08 01:31:13;;;;;;;1.48;0.30;;;;;;;-142.37;100.00;59669.53;4975940;28;20047;-64
2022/09/08 01:33:40;;;;;;;1.05;0.30;;;;;;;-142.37;100.00;59669.53;4976057;28;20023;-64
2022/09/08 01:36:08;;;;;;;0.35;0.32;;;;;;;-142.37;100.00;59669.53;4976080;28;20552;-63
2022/09/08 01:38:34;;;;;;;1.25;0.50;;;;;;;-142.37;100.00;59669.53;4958605;28;20077;-64
2022/09/08 01:40:59;;;;;;;1.50;0.38;;;;;;;-142.37;100.00;59669.53;4975632;28;20019;-63
2022/09/08 01:43:25;;;;;;;0.80;0.32;;;;;;;-142.37;100.00;59669.53;4958381;28;20037;-63
2022/09/08 01:45:51;;;;;;;2.38;0.45;;;;;;;-142.37;100.00;59669.53;4975916;28;20038;-61
2022/09/08 01:48:17;;;;;;;1.48;0.30;;;;;;;-142.37;100.00;59669.53;4958444;28;20097;-64
2022/09/08 01:50:42;;;;;;;2.50;0.55;;;;;;;-142.37;100.00;59669.53;4976057;28;20102;-62
2022/09/08 01:53:08;;;;;;;2.50;0.47;;;;;;;-142.37;100.00;59669.53;4975522;28;20484;-63
2022/09/08 01:55:34;;;;;;;1.60;0.40;;;;;;;-142.37;100.00;59669.53;4975413;28;20031;-64
2022/09/08 01:57:59;;;;;;;1.52;0.40;;;;;;;-142.37;100.00;59669.53;4975130;28;20113;-64
2022/09/08 02:00:25;;;;;;;0.85;0.50;;;;;;;-142.37;100.00;59669.53;4975653;28;20118;-63
2022/09/08 02:02:51;;;;;;;1.50;0.40;;;;;;;-142.37;100.00;59669.53;4975891;28;20130;-63
2022/09/08 02:05:16;;;;;;;2.13;0.10;;;;;;;-142.37;100.00;59669.53;4975392;28;20531;-63
2022/09/08 02:07:42;;;;;;;4.22;0.55;;;;;;;-142.37;100.00;59669.53;4975382;28;20035;-62
2022/09/08 02:10:08;;;;;;;1.05;0.35;;;;;;;-142.37;100.00;59669.53;4975405;28;20054;-63
2022/09/08 02:12:34;;;;;;;0.68;0.20;;;;;;;-142.37;100.00;59669.53;4975303;28;20035;-63
2022/09/08 02:15:00;;;;;;;1.63;0.38;;;;;;;-142.37;100.00;59669.53;4958060;28;20034;-62
2022/09/08 02:17:29;;;;;;;1.25;0.30;;;;;;;-142.37;100.00;59669.53;4975602;28;20448;-62
2022/09/08 02:19:56;;;;;;;1.95;0.40;;;;;;;-142.37;100.00;59669.53;4957601;28;20030;-63
2022/09/08 02:22:22;;;;;;;0.98;0.40;;;;;;;-142.37;100.00;59669.53;4975350;28;20033;-63
2022/09/08 02:24:47;;;;;;;0.70;0.30;;;;;;;-142.37;100.00;59669.53;4975344;28;20039;-63
2022/09/08 02:27:13;;;;;;;1.50;0.30;;;;;;;-142.37;100.00;59669.53;4974857;28;20125;-62
2022/09/08 02:29:38;;;;;;;0.45;0.40;;;;;;;-142.37;100.00;59669.53;4957775;28;20038;-66
2022/09/08 02:32:05;;;;;;;3.00;0.68;;;;;;;-142.37;100.00;59669.53;4975495;28;20033;-63
2022/09/08 02:34:31;;;;;;;0.45;0.40;;;;;;;-142.37;100.00;59669.53;4975312;28;20407;-62
2022/09/08 02:36:57;;;;;;;4.32;0.30;;;;;;;-142.37;100.00;59669.53;4974899;28;20399;-64
2022/09/08 02:39:23;;;;;;;2.63;0.40;;;;;;;-142.37;100.00;59669.53;4975411;28;20031;-63
2022/09/08 02:41:49;;;;;;;4.57;0.40;;;;;;;-142.37;100.00;59669.53;4975167;28;20492;-63
2022/09/08 02:44:15;;;;;;;1.25;0.52;;;;;;;-142.37;100.00;59669.53;4975005;28;20054;-63
2022/09/08 02:46:42;;;;;;;2.00;0.30;;;;;;;-142.37;100.00;59669.53;4957571;28;20027;-64
2022/09/08 02:49:10;;;;;;;2.85;0.30;;;;;;;-142.37;100.00;59669.53;4957296;28;20034;-63
2022/09/08 02:51:36;;;;;;;0.90;0.20;;;;;;;-142.37;100.00;59669.53;4974921;28;20085;-63
2022/09/08 02:54:03;;;;;;;1.48;0.60;;;;;;;-142.37;100.00;59669.53;4974552;28;20041;-64
2022/09/08 02:56:29;;;;;;;0.85;0.40;;;;;;;-142.37;100.00;59669.53;4974767;28;20019;-62
2022/09/08 02:58:54;;;;;;;2.17;0.28;;;;;;;-142.37;100.00;59669.53;4957350;28;20030;-63
2022/09/08 03:01:21;;;;;;;0.73;0.15;;;;;;;-142.37;100.00;59669.53;4974523;28;20038;-63
2022/09/08 03:03:47;;;;;;;2.70;0.65;;;;;;;-142.37;100.00;59669.53;4974744;28;20105;-63
2022/09/08 03:06:14;;;;;;;2.83;0.65;;;;;;;-142.37;100.00;59669.53;4957267;28;20573;-63
2022/09/08 03:08:40;;;;;;;0.32;0.20;;;;;;;-142.37;100.00;59669.53;4956910;28;20133;-64
2022/09/08 03:11:06;;;;;;;0.60;0.45;;;;;;;-142.37;100.00;59669.53;4973193;28;20539;-63
2022/09/08 03:13:32;;;;;;;1.48;0.45;;;;;;;-142.37;100.00;59669.53;4974954;28;20033;-63
2022/09/08 03:15:58;;;;;;;0.45;0.40;;;;;;;-142.37;100.00;59669.53;4957659;28;20499;-63
2022/09/08 03:18:24;;;;;;;4.15;0.50;;;;;;;-142.37;100.00;59669.53;4957309;28;20058;-65
2022/09/08 03:21:11;;;;;;;0.50;0.40;;;;;;;-142.37;100.00;59669.53;4957154;28;20038;-62
2022/09/08 03:23:37;;;;;;;1.13;0.28;;;;;;;-142.37;100.00;59669.53;4956639;28;20035;-62
2022/09/08 03:26:14;;;;;;;0.80;0.38;;;;;;;-142.37;100.00;59669.53;4957229;28;20023;-63
2022/09/08 03:28:42;;;;;;;0.85;0.25;;;;;;;-142.37;100.00;59669.53;4974331;28;20031;-63
2022/09/08 03:31:14;;;;;;;2.75;0.43;;;;;;;-142.37;100.00;59669.53;4973008;28;20098;-62
2022/09/08 03:33:40;;;;;;;1.50;0.60;;;;;;;-142.37;100.00;59669.53;4956800;28;20030;-63
2022/09/08 03:36:08;;;;;;;0.40;0.22;;;;;;;-142.37;100.00;59669.53;4974447;28;20078;-63
2022/09/08 03:38:34;;;;;;;1.25;0.40;;;;;;;-142.37;100.00;59669.53;4973990;28;20377;-64
2022/09/08 03:41:05;;;;;;;1.15;0.20;;;;;;;-142.37;100.00;59669.53;4973918;28;20468;-63
2022/09/08 03:43:31;;;;;;;1.42;0.40;;;;;;;-142.37;100.00;59669.53;4973854;28;20061;-62
2022/09/08 03:45:56;;;;;;;1.08;0.20;;;;;;;-142.37;100.00;59669.53;4956436;28;20551;-62
2022/09/08 03:48:22;;;;;;;1.77;0.43;;;;;;;-142.37;100.00;59669.53;4973761;28;20038;-63
2022/09/08 03:50:47;;;;;;;1.05;0.50;;;;;;;-142.37;100.00;59669.53;4956368;28;20093;-64
2022/09/08 03:53:13;;;;;;;2.25;0.40;;;;;;;-142.37;100.00;59669.53;4956132;28;20065;-63
2022/09/08 03:55:42;;;;;;;1.13;0.40;;;;;;;-142.37;100.00;59669.53;4973731;28;20544;-62
2022/09/08 03:58:09;;;;;;;0.82;0.28;;;;;;;-142.37;100.00;59669.53;4973716;28;20030;-64
2022/09/08 04:00:35;;;;;;;1.05;0.40;;;;;;;-142.37;100.00;59669.53;4956168;28;20027;-64
2022/09/08 04:03:03;;;;;;;0.95;0.30;;;;;;;-142.37;100.00;59669.53;4955957;28;20093;-64
2022/09/08 04:05:30;;;;;;;2.58;0.70;;;;;;;-142.37;100.00;59669.53;4956040;28;20046;-63
2022/09/08 04:07:55;;;;;;;1.48;0.52;;;;;;;-142.37;100.00;59669.53;4973518;28;20035;-63
2022/09/08 04:10:21;;;;;;;0.63;0.30;;;;;;;-142.37;100.00;59669.53;4955861;28;20030;-64
2022/09/08 04:12:47;;;;;;;0.85;0.50;;;;;;;-142.37;100.00;59669.53;4973043;28;20030;-64
2022/09/08 04:15:13;;;;;;;1.73;0.47;;;;;;;-142.37;100.00;59669.53;4973129;28;20191;-64
2022/09/08 04:17:39;;;;;;;1.65;0.52;;;;;;;-142.37;100.00;59669.53;4955674;28;20030;-65
2022/09/08 04:20:06;;;;;;;3.83;0.40;;;;;;;-142.37;100.00;59669.53;4973003;28;20903;-65
2022/09/08 04:22:32;;;;;;;1.25;0.30;;;;;;;-142.37;100.00;59669.53;4973292;28;20085;-64
2022/09/08 04:24:58;;;;;;;0.85;0.43;;;;;;;-142.37;100.00;59669.53;4972958;28;20030;-64
2022/09/08 04:27:23;;;;;;;1.77;0.30;;;;;;;-142.37;100.00;59669.53;4955607;28;20038;-64
2022/09/08 04:29:50;;;;;;;0.43;0.22;;;;;;;-142.37;100.00;59669.53;4972445;28;20109;-64
2022/09/08 04:32:17;;;;;;;1.13;0.60;;;;;;;-142.37;100.00;59669.53;4972794;28;20492;-64
2022/09/08 04:34:43;;;;;;;2.08;0.47;;;;;;;-142.37;100.00;59669.53;4955176;28;20037;-64
2022/09/08 04:37:08;;;;;;;2.55;0.55;;;;;;;-142.37;100.00;59669.53;4955426;28;20045;-63
2022/09/08 04:39:35;;;;;;;1.70;0.47;;;;;;;-142.37;100.00;59669.53;4972841;28;20502;-64
2022/09/08 04:42:01;;;;;;;1.75;0.73;;;;;;;-142.37;100.00;59669.53;4957015;28;20030;-63
2022/09/08 04:44:27;;;;;;;2.15;0.77;;;;;;;-142.37;100.00;59669.53;4959494;28;20030;-65
2022/09/08 04:46:52;;;;;;;1.13;0.43;;;;;;;-142.37;100.00;59669.53;4976455;28;20208;-63
2022/09/08 04:49:18;;;;;;;1.15;0.43;;;;;;;-142.37;100.00;59669.53;4976328;28;20109;-64
2022/09/08 04:51:44;;;;;;;1.90;0.40;;;;;;;-142.37;100.00;59669.53;4976794;28;20027;-63
2022/09/08 04:54:10;;;;;;;2.03;0.60;;;;;;;-142.37;100.00;59669.53;4976642;28;20400;-65
2022/09/08 04:56:36;;;;;;;2.10;0.50;;;;;;;-142.37;100.00;59669.53;4976342;28;20030;-65
2022/09/08 04:59:03;;;;;;;3.42;0.50;;;;;;;-142.37;100.00;59669.53;4958774;28;20030;-65
2022/09/08 05:01:34;;;;;;;1.50;0.50;;;;;;;-142.37;100.00;59669.53;4959327;28;20468;-64
2022/09/08 05:04:01;;;;;;;6.50;0.65;;;;;;;-142.37;100.00;59669.53;4958815;28;20027;-65
2022/09/08 05:06:32;;;;;;;3.67;0.85;;;;;;;-142.37;100.00;59669.53;4959152;28;20023;-64
2022/09/08 05:09:00;;;;;;;9.25;0.82;;;;;;;-142.37;100.00;59669.53;4958101;28;20459;-64
2022/09/08 05:11:27;;;;;;;2.22;0.70;;;;;;;-142.37;100.00;59669.53;4975583;28;20419;-65
2022/09/08 05:13:53;;;;;;;3.15;0.70;;;;;;;-142.37;100.00;59669.53;4976180;28;20400;-64
2022/09/08 05:16:22;;;;;;;1.10;0.70;;;;;;;-142.37;100.00;59669.53;4976210;28;20033;-65
2022/09/08 05:18:56;;;;;;;4.80;0.80;;;;;;;-142.37;100.00;59669.53;4975974;28;20078;-64
2022/09/08 05:21:23;;;;;;;2.97;0.60;;;;;;;-142.37;100.00;59669.53;4976194;28;20034;-64
2022/09/08 05:23:53;;;;;;;2.33;1.52;;;;;;;-142.37;100.00;59669.53;4957854;28;20385;-65
2022/09/08 05:26:21;;;;;;;5.00;0.70;;;;;;;-142.37;100.00;59669.53;4975234;28;20435;-63
2022/09/08 05:28:47;;;;;;;2.53;1.00;;;;;;;-142.37;100.00;59669.53;4975422;28;20053;-65
2022/09/08 05:31:19;;;;;;;6.57;0.98;;;;;;;-142.37;100.00;59669.53;4957367;28;20057;-66
2022/09/08 05:33:47;;;;;;;3.95;1.00;;;;;;;-142.37;100.00;59669.53;4975445;28;20054;-65
2022/09/08 05:36:16;;;;;;;7.68;0.85;;;;;;;-142.37;100.00;59669.53;4973987;28;20464;-65
2022/09/08 05:38:43;;;;;;;3.40;0.82;;;;;;;-142.37;100.00;59669.53;4975358;28;20031;-64
2022/09/08 05:41:10;;;;;;;6.32;1.20;;;;;;;-142.37;100.00;59669.53;4975082;28;20141;-65
2022/09/08 05:43:36;;;;;;;7.82;0.70;;;;;;;-142.37;100.00;59669.53;4975045;28;20027;-65
2022/09/08 05:46:02;;;;;;;1.00;0.50;;;;;;;-142.37;100.00;59669.53;4975178;28;20026;-65
2022/09/08 05:48:28;;;;;;;1.33;0.40;;;;;;;-142.37;100.00;59669.53;4974879;28;20530;-64
2022/09/08 05:50:54;;;;;;;0.40;0.25;;;;;;;-142.37;100.00;59669.53;4974561;28;20054;-64
2022/09/08 05:53:20;;;;;;;0.80;0.40;;;;;;;-142.37;100.00;59669.53;4955700;28;20030;-65
2022/09/08 05:55:56;;;;;;;2.88;0.50;;;;;;;-142.37;100.00;59669.53;4974413;28;20819;-65
2022/09/08 05:58:22;;;;;;;0.85;0.32;;;;;;;-142.37;100.00;59669.53;4973951;28;20035;-65
2022/09/08 06:01:03;;;;;;;3.58;0.90;;;;;;;-142.37;100.00;59669.53;4956895;28;20089;-64
2022/09/08 06:03:29;;;;;;;0.40;0.20;;;;;;;-142.37;100.00;59669.53;4974175;28;20038;-65
2022/09/08 06:05:55;;;;;;;1.25;0.50;;;;;;;-142.37;100.00;59669.53;4974310;28;20034;-65
2022/09/08 06:08:22;;;;;;;1.23;0.40;;;;;;;-142.37;100.00;59669.53;4973307;28;20077;-64
2022/09/08 06:10:52;;;;;;;0.75;0.43;;;;;;;-142.37;100.00;59669.53;4956042;28;20087;-65
2022/09/08 06:13:18;;;;;;;0.73;0.40;;;;;;;-142.37;100.00;59669.53;4973547;28;20448;-66
2022/09/08 06:15:44;;;;;;;2.42;0.68;;;;;;;-142.37;100.00;59669.53;4973667;28;20387;-64
2022/09/08 06:18:10;;;;;;;2.33;0.47;;;;;;;-142.37;100.00;59669.53;4955911;28;20075;-65
2022/09/08 06:20:37;;;;;;;1.48;0.50;;;;;;;-142.37;100.00;59669.53;4973811;28;20031;-67
2022/09/08 06:23:02;;;;;;;3.53;0.85;;;;;;;-142.37;100.00;59669.53;4974288;28;20023;-63
2022/09/08 06:25:29;;;;;;;0.30;0.30;;;;;;;-142.37;100.00;59669.53;4974387;28;20034;-65
2022/09/08 06:28:10;;;;;;;1.40;0.30;;;;;;;-142.37;100.00;59669.53;4956582;28;20037;-65
2022/09/08 06:30:35;;;;;;;0.60;0.30;;;;;;;-142.37;100.00;59669.53;4974134;28;20050;-64
2022/09/08 06:33:07;;;;;;;2.65;0.63;;;;;;;-142.37;100.00;59669.53;4973806;28;20173;-64
2022/09/08 06:35:45;;;;;;;2.08;0.47;;;;;;;-142.37;100.00;59669.53;4974192;28;20088;-64
2022/09/08 06:38:15;;;;;;;1.23;0.30;;;;;;;-142.37;100.00;59669.53;4956198;28;20026;-65
2022/09/08 06:41:25;;;;;;;6.22;1.00;;;;;;;-142.37;100.00;59669.53;4974339;28;20077;-64
2022/09/08 06:43:58;;;;;;;0.40;0.20;;;;;;;-142.37;100.00;59669.53;4953422;28;20416;-66
2022/09/08 06:46:29;;;;;;;4.88;0.88;;;;;;;-142.37;100.00;59669.53;4956620;28;20031;-64
2022/09/08 06:48:54;;;;;;;1.95;0.40;;;;;;;-142.37;100.00;59669.53;4974208;28;20066;-64
2022/09/08 06:51:42;;;;;;;2.25;0.30;;;;;;;-142.37;100.00;59669.53;4974345;28;20484;-65
2022/09/08 06:54:15;;;;;;;1.83;0.75;;;;;;;-142.37;100.00;59669.53;4974961;28;20037;-65
2022/09/08 06:57:05;;;;;;;4.03;0.50;;;;;;;-142.37;100.00;59669.53;4974724;28;20035;-69
2022/09/08 06:59:54;;;;;;;2.47;1.05;;;;;;;-142.37;100.00;59669.53;4973886;28;20446;-67
2022/09/08 07:02:50;;;;;;;0.55;0.40;;;;;;;-142.37;100.00;59669.53;4974418;28;20427;-66
2022/09/08 07:05:34;;;;;;;;;;;;;;;-142.37;100.00;59669.53;4948623;28;20141;-63
2022/09/08 07:08:40;;;;;;;0.82;0.25;;;;;;;-142.37;100.00;59669.53;4973573;28;19921;-64
2022/09/08 07:11:08;;;;;;;1.08;0.50;;;;;;;-142.37;100.00;59669.53;4956288;28;20031;-66
2022/09/08 07:13:37;;;;;;;1.88;0.43;;;;;;;-142.37;100.00;59669.53;4972679;28;20384;-67
2022/09/08 07:16:24;;;;;;;1.58;0.65;;;;;;;-142.37;100.00;59669.53;4972552;28;20066;-65
2022/09/08 07:18:58;;;;;;;1.65;0.40;;;;;;;-142.37;100.00;59669.53;4956048;28;20152;-65
2022/09/08 07:21:56;;;;;;;1.98;0.35;;;;;;;-142.37;100.00;59669.53;4973704;28;20038;-64
2022/09/08 07:24:28;;;;;;;3.65;0.43;;;;;;;-142.37;100.00;59669.53;4961594;28;20117;-66
2022/09/08 07:26:58;;;;;;;1.98;0.45;;;;;;;-142.37;100.00;59669.53;4956052;28;20121;-65
2022/09/08 07:29:36;;;;;;;4.38;0.68;;;;;;;-142.37;100.00;59669.53;4973357;28;20066;-65
2022/09/08 07:32:02;;;;;;;0.57;0.28;;;;;;;-142.37;100.00;59669.53;4973284;28;20154;-65
2022/09/08 07:34:35;;;;;;;1.40;0.57;;;;;;;-142.37;100.00;59669.53;4955878;28;20035;-64
2022/09/08 07:37:12;;;;;;;1.23;0.35;;;;;;;-142.37;100.00;59669.53;4973432;28;20341;-64
2022/09/08 07:39:46;;;;;;;0.70;0.40;;;;;;;-142.37;100.00;59669.53;4973264;28;20034;-65
2022/09/08 07:42:14;;;;;;;2.40;0.40;;;;;;;-142.37;100.00;59669.53;4956040;28;20038;-66
2022/09/08 07:44:40;;;;;;;1.52;0.38;;;;;;;-142.37;100.00;59669.53;4956222;28;20027;-65
2022/09/08 07:48:17;;;;;;;0.38;0.22;;;;;;;-142.37;100.00;59669.53;4973189;28;20388;-64
2022/09/08 07:50:54;;;;;;;0.45;0.30;;;;;;;-142.37;100.00;59669.53;4877183;29;20039;-67
2022/09/08 07:53:32;;;;;;;0.52;0.30;;;;;;;-142.37;100.00;59669.53;4951578;28;20042;-65
2022/09/08 07:56:22;;;;;;;1.33;0.55;;;;;;;-142.37;100.00;59669.53;4955091;28;20038;-65
2022/09/08 07:59:07;;;;;;;1.25;0.55;;;;;;;-142.37;100.00;59669.53;4972595;28;20110;-65
2022/09/08 08:01:45;;;;;;;1.65;0.50;;;;;;;-142.37;100.00;59669.53;4972930;28;20062;-65
2022/09/08 08:04:18;;;;;;;0.32;0.30;;;;;;;-142.37;100.00;59669.53;4972793;28;20042;-68
2022/09/08 08:06:50;;;;;;;1.25;0.50;;;;;;;-142.37;100.00;59669.53;4973956;28;20448;-67
2022/09/08 08:09:34;;;;;;;1.95;0.43;;;;;;;-142.37;100.00;59669.53;4955670;28;20119;-66
2022/09/08 08:12:18;;;;;;;0.57;0.30;;;;;;;-142.37;100.00;59669.53;4955696;28;20070;-65
2022/09/08 08:14:56;;;;;;;2.42;0.50;;;;;;;-142.37;100.00;59669.53;4972965;28;20043;-65
2022/09/08 08:17:31;;;;;;;0.90;0.57;;;;;;;-142.37;100.00;59669.53;4972410;28;20169;-66
2022/09/08 08:20:25;;;;;;;2.38;0.80;;;;;;;-142.37;100.00;59669.53;4955535;28;20030;-67
2022/09/08 08:23:09;;;;;;;2.05;0.75;;;;;;;-142.37;100.00;59669.53;4955119;28;20103;-65
2022/09/08 08:26:16;;;;;;;0.80;0.40;;;;;;;-142.37;100.00;59669.53;4972225;28;20035;-66
2022/09/08 08:28:44;;;;;;;2.78;0.50;;;;;;;-142.37;100.00;59669.53;4954848;28;20537;-67
2022/09/08 08:31:18;;;;;;;3.08;0.73;;;;;;;-142.37;100.00;59669.53;4972269;28;20042;-67
2022/09/08 08:33:48;;;;;;;1.10;0.50;;;;;;;-142.37;100.00;59669.53;4971020;28;20039;-66
2022/09/08 08:36:19;;;;;;;0.40;0.30;;;;;;;-142.37;100.00;59669.53;4972807;28;20085;-67
2022/09/08 08:38:44;;;;;;;2.03;0.80;;;;;;;-142.37;100.00;59669.53;4972523;28;20460;-66
2022/09/08 08:41:48;;;;;;;2.63;1.00;;;;;;;-142.37;100.00;59669.53;4972579;28;20073;-67
2022/09/08 08:44:48;;;;;;;2.00;0.50;;;;;;;-142.37;100.00;59669.53;4970482;28;20086;-67
2022/09/08 08:47:27;;;;;;;3.92;0.55;;;;;;;-142.37;100.00;59669.53;4972069;28;20031;-66
2022/09/08 08:50:12;;;;;;;4.00;1.95;;;;;;;-142.37;100.00;59669.53;4970993;28;20126;-66
2022/09/08 08:52:40;;;;;;;2.55;0.60;;;;;;;-142.37;100.00;59669.53;4972291;28;20099;-66
2022/09/08 08:55:28;;;;;;;3.42;0.52;;;;;;;-142.37;100.00;59669.53;4972292;28;20030;-66
2022/09/08 08:58:20;;;;;;;1.08;0.70;;;;;;;-142.37;100.00;59669.53;4971182;28;20042;-68
2022/09/08 09:01:12;;;;;;;1.25;0.50;;;;;;;-142.37;100.00;59669.53;4952349;28;20122;-65
2022/09/08 09:04:02;;;;;;;1.50;0.40;;;;;;;-142.37;100.00;59669.53;4955328;28;20031;-65
2022/09/08 09:06:57;;;;;;;2.47;0.75;;;;;;;-142.37;100.00;59669.53;4972176;28;20077;-66
2022/09/08 09:09:50;;;;;;;1.05;0.30;;;;;;;-142.37;100.00;59669.53;4948904;28;20057;-68
2022/09/08 09:12:39;;;;;;;4.20;0.75;;;;;;;-142.37;100.00;59669.53;4970707;28;20035;-66
2022/09/08 09:15:36;;;;;;;0.47;0.40;;;;;;;-142.37;100.00;59669.53;4954526;28;20400;-65
2022/09/08 09:18:40;;;;;;;0.50;0.50;;;;;;;-142.37;100.00;59669.53;4970741;28;20486;-67
2022/09/08 09:21:43;;;;;;;0.98;0.60;;;;;;;-142.37;100.00;59669.53;4971952;28;20085;-66
2022/09/08 09:24:28;;;;;;;1.45;1.13;;;;;;;-142.37;100.00;59669.53;4970627;28;20054;-66
2022/09/08 09:26:54;;;;;;;1.38;0.65;;;;;;;-142.37;100.00;59669.53;4971040;28;20168;-65
2022/09/08 09:29:25;;;;;;;0.40;0.30;;;;;;;-142.37;100.00;59669.53;4973645;28;20543;-67
2022/09/08 09:32:13;;;;;;;2.95;0.45;;;;;;;-142.37;100.00;59669.53;4975430;28;20081;-66
2022/09/08 09:34:49;;;;;;;0.30;0.30;;;;;;;-142.37;100.00;59669.53;4975230;28;20066;-64
2022/09/08 09:37:33;;;;;;;1.33;0.70;;;;;;;-142.37;100.00;59669.53;4973782;28;20039;-66
2022/09/08 09:40:02;;;;;;;0.77;0.70;;;;;;;-142.37;100.00;59669.53;4957654;28;20388;-66
2022/09/08 09:42:45;;;;;;;1.38;0.60;;;;;;;-142.37;100.00;59669.53;4973764;28;20035;-65
2022/09/08 09:45:44;;;;;;;1.42;0.28;;;;;;;-142.37;100.00;59669.53;4957362;28;20057;-64
2022/09/08 09:48:38;;;;;;;1.00;0.40;;;;;;;-142.37;100.00;59669.53;4973553;28;20038;-66
2022/09/08 09:51:25;;;;;;;0.98;0.65;;;;;;;-142.37;100.00;59669.53;4972968;28;20073;-65
2022/09/08 09:54:17;;;;;;;2.28;2.08;;;;;;;-142.37;100.00;59669.53;4957692;28;20129;-65
2022/09/08 09:57:14;;;;;;;1.42;0.90;;;;;;;-142.37;100.00;59669.53;4974947;28;20042;-64
2022/09/08 10:00:18;;;;;;;2.83;0.60;;;;;;;-142.37;100.00;59669.53;4973551;28;20027;-65
2022/09/08 10:03:21;;;;;;;0.32;0.20;;;;;;;-142.37;100.00;59669.53;4974838;28;20097;-65
2022/09/08 10:06:08;;;;;;;4.32;1.20;;;;;;;-142.37;100.00;59669.53;4973556;28;20514;-64
2022/09/08 10:08:47;;;;;;;1.10;0.70;;;;;;;-142.37;100.00;59669.53;4974510;28;20097;-65
2022/09/08 10:11:27;;;;;;;6.35;1.40;;;;;;;-142.37;100.00;59669.53;4973269;28;20106;-66
2022/09/08 10:14:05;;;;;;;1.30;0.73;;;;;;;-142.37;100.00;59669.53;4974448;28;20496;-66
2022/09/08 10:16:58;;;;;;;3.70;1.10;;;;;;;-142.37;100.00;59669.53;4972873;28;20039;-65
2022/09/08 10:19:49;;;;;;;2.63;0.80;;;;;;;-142.37;100.00;59669.53;4974763;28;20030;-68
2022/09/08 10:22:43;;;;;;;4.13;1.45;;;;;;;-142.37;100.00;59669.53;4974530;28;20415;-64
2022/09/08 10:25:37;;;;;;;3.08;0.70;;;;;;;-142.37;100.00;59669.53;4973210;28;20031;-65
2022/09/08 10:28:50;;;;;;;1.83;0.70;;;;;;;-142.37;100.00;59669.53;4974662;28;20038;-67
2022/09/08 10:31:31;;;;;;;1.38;0.70;;;;;;;-142.37;100.00;59669.53;4956242;28;20297;-68
2022/09/08 10:34:34;;;;;;;1.65;0.82;;;;;;;-142.37;100.00;59669.53;4972990;28;20034;-66
2022/09/08 10:37:00;;;;;;;2.30;0.82;;;;;;;-142.37;100.00;59669.53;4972922;28;20543;-66
2022/09/08 10:39:34;;;;;;;0.52;0.52;;;;;;;-142.37;100.00;59669.53;4974189;28;20038;-66
2022/09/08 10:42:20;;;;;;;1.00;0.90;;;;;;;-142.37;100.00;59669.53;4973012;28;20110;-65
2022/09/08 10:45:28;;;;;;;1.75;0.60;;;;;;;-142.37;100.00;59669.53;4974019;28;20039;-64
2022/09/08 10:48:39;;;;;;;4.90;0.60;;;;;;;-142.37;100.00;59669.53;4972706;28;20094;-66
2022/09/08 10:51:36;;;;;;;2.05;0.52;;;;;;;-142.37;100.00;59669.53;4973416;28;20118;-65
2022/09/08 10:54:22;;;;;;;1.33;0.60;;;;;;;-142.37;100.00;59669.53;4974592;28;20043;-65
2022/09/08 10:56:48;;;;;;;0.85;0.55;;;;;;;-142.37;100.00;59669.53;4956561;28;20038;-65
2022/09/08 10:59:40;;;;;;;0.77;0.68;;;;;;;-142.37;100.00;59669.53;4973397;28;20034;-65
2022/09/08 11:02:32;;;;;;;1.85;0.60;;;;;;;-142.37;100.00;59669.53;4956318;28;20034;-66
2022/09/08 11:05:29;;;;;;;1.95;1.25;;;;;;;-142.37;100.00;59669.53;4955770;28;20313;-66
2022/09/08 11:08:08;;;;;;;1.70;0.60;;;;;;;-142.37;100.00;59669.53;4973619;28;20066;-65
2022/09/08 11:10:56;;;;;;;3.22;1.35;;;;;;;-142.37;100.00;59669.53;4955771;28;20041;-65
2022/09/08 11:13:36;;;;;;;1.98;0.47;;;;;;;-142.37;100.00;59669.53;4956210;28;20190;-64
2022/09/08 11:16:04;;;;;;;1.20;0.47;;;;;;;-142.37;100.00;59669.53;4956152;28;20027;-64
2022/09/08 11:18:43;;;;;;;0.75;0.30;;;;;;;-142.37;100.00;59669.53;4972579;28;20121;-64
2022/09/08 11:21:39;;;;;;;0.70;0.50;;;;;;;-142.37;100.00;59669.53;4973922;28;20045;-63
2022/09/08 11:24:35;;;;;;;1.00;0.55;;;;;;;-142.37;100.00;59669.53;4956237;28;20118;-64
2022/09/08 11:27:18;;;;;;;0.52;0.50;;;;;;;-142.37;100.00;59669.53;4955609;28;20106;-64
2022/09/08 11:29:52;;;;;;;1.65;0.40;;;;;;;-142.37;100.00;59669.53;4972289;28;20177;-63
2022/09/08 11:32:34;;;;;;;0.90;0.50;;;;;;;-142.37;100.00;59669.53;4973586;28;20125;-63
2022/09/08 11:35:28;;;;;;;2.85;0.60;;;;;;;-142.37;100.00;59669.53;4956027;28;20034;-64
2022/09/08 11:38:22;;;;;;;1.25;0.60;;;;;;;-142.37;100.00;59669.53;4956311;28;20045;-65
2022/09/08 11:41:20;;;;;;;0.47;0.47;;;;;;;-142.37;100.00;59669.53;4973261;28;20027;-65
2022/09/08 11:43:51;;;;;;;0.30;0.30;;;;;;;-142.37;100.00;59669.53;4973577;28;20038;-64
2022/09/08 11:46:54;;;;;;;2.53;0.40;;;;;;;-142.37;100.00;59669.53;4972171;28;20487;-64
2022/09/08 11:49:55;;;;;;;0.93;0.30;;;;;;;-142.37;100.00;59669.53;4971855;28;20093;-63